createdAt,value
2019-05-21T00:01:37.546Z,6.50
2019-05-21T00:04:09.512Z,7.20
2019-05-21T00:06:41.862Z,7.07
2019-05-21T00:09:13.832Z,6.07
2019-05-21T00:11:45.866Z,5.60
2019-05-21T00:14:17.814Z,5.10
2019-05-21T00:16:50.076Z,4.90
2019-05-21T00:19:22.032Z,6.33
2019-05-21T00:21:54.398Z,6.37
2019-05-21T00:24:26.375Z,6.10
2019-05-21T00:26:58.510Z,6.40
2019-05-21T00:30:24.320Z,5.70
2019-05-21T00:33:49.696Z,5.13
2019-05-21T00:37:19.930Z,5.70
2019-05-21T00:40:45.564Z,5.23
2019-05-21T00:43:18.980Z,4.77
2019-05-21T00:45:51.620Z,5.90
2019-05-21T00:48:23.562Z,6.10
2019-05-21T00:50:55.540Z,5.93
2019-05-21T00:53:27.632Z,5.00
2019-05-21T00:55:59.990Z,5.43
2019-05-21T00:58:32.074Z,5.47
2019-05-21T01:01:04.146Z,4.70
2019-05-21T01:03:36.114Z,4.80
2019-05-21T01:06:08.130Z,5.10
2019-05-21T01:08:40.492Z,4.17
2019-05-21T01:11:12.454Z,4.20
2019-05-21T01:13:44.425Z,4.27
2019-05-21T01:16:16.408Z,5.43
2019-05-21T01:18:48.373Z,4.10
2019-05-21T01:21:20.354Z,4.37
2019-05-21T01:23:52.308Z,4.23
2019-05-21T01:26:24.283Z,4.50
2019-05-21T01:28:56.221Z,4.30
2019-05-21T01:31:28.189Z,4.83
2019-05-21T01:34:00.408Z,5.50
2019-05-21T01:36:32.373Z,5.27
2019-05-21T01:39:05.483Z,5.53
2019-05-21T01:41:37.860Z,5.40
2019-05-21T01:44:09.812Z,5.00
2019-05-21T01:46:41.762Z,5.33
2019-05-21T01:49:13.784Z,5.33
2019-05-21T01:51:45.750Z,4.90
2019-05-21T01:54:17.780Z,4.63
2019-05-21T01:56:50.288Z,4.10
2019-05-21T01:59:22.277Z,4.77
2019-05-21T02:01:54.277Z,4.43
2019-05-21T02:04:26.226Z,4.40
2019-05-21T02:06:58.314Z,4.10
2019-05-21T02:09:32.196Z,4.60
2019-05-21T02:12:04.159Z,4.27
2019-05-21T02:14:36.134Z,4.90
2019-05-21T02:17:08.077Z,4.40
2019-05-21T02:19:40.302Z,4.60
2019-05-21T02:22:12.333Z,4.47
2019-05-21T02:24:44.264Z,4.37
2019-05-21T02:27:16.246Z,4.40
2019-05-21T02:29:48.174Z,4.07
2019-05-21T02:32:20.141Z,4.20
2019-05-21T02:34:52.087Z,4.20
2019-05-21T02:37:24.085Z,4.13
2019-05-21T02:39:56.109Z,4.30
2019-05-21T02:42:28.292Z,3.90
2019-05-21T02:45:00.238Z,4.10
2019-05-21T02:47:32.183Z,3.97
2019-05-21T02:50:04.140Z,3.60
2019-05-21T02:52:36.155Z,3.30
2019-05-21T02:55:08.560Z,4.03
2019-05-21T02:57:41.937Z,3.60
2019-05-21T03:00:38.411Z,3.90
2019-05-21T03:03:08.452Z,4.37
2019-05-21T03:05:40.620Z,4.67
2019-05-21T03:08:12.552Z,4.30
2019-05-21T03:10:44.493Z,5.20
2019-05-21T03:13:16.474Z,4.67
2019-05-21T03:15:48.430Z,5.23
2019-05-21T03:18:20.798Z,5.80
2019-05-21T03:20:52.768Z,5.80
2019-05-21T03:23:25.004Z,5.70
2019-05-21T03:25:56.957Z,5.87
2019-05-21T03:28:28.901Z,6.50
2019-05-21T03:31:01.273Z,6.33
2019-05-21T03:33:33.257Z,6.40
2019-05-21T03:36:05.213Z,5.60
2019-05-21T03:38:37.198Z,5.37
2019-05-21T03:41:09.168Z,4.80
2019-05-21T03:43:41.159Z,4.83
2019-05-21T03:46:13.119Z,4.47
2019-05-21T03:48:45.075Z,4.77
2019-05-21T03:51:17.116Z,5.73
2019-05-21T03:53:49.126Z,5.07
2019-05-21T03:56:21.219Z,5.10
2019-05-21T03:58:53.189Z,5.27
2019-05-21T04:01:25.200Z,5.17
2019-05-21T04:03:57.205Z,4.30
2019-05-21T04:06:29.167Z,4.90
2019-05-21T04:09:01.256Z,5.63
2019-05-21T04:11:33.229Z,4.67
2019-05-21T04:14:05.256Z,4.60
2019-05-21T04:16:45.291Z,5.23
2019-05-21T04:19:21.072Z,5.00
2019-05-21T04:21:56.088Z,4.70
2019-05-21T04:24:28.074Z,5.70
2019-05-21T04:27:00.309Z,5.57
2019-05-21T04:29:32.653Z,5.80
2019-05-21T04:32:04.603Z,5.50
2019-05-21T04:34:36.634Z,5.10
2019-05-21T04:37:11.361Z,5.40
2019-05-21T04:39:42.324Z,5.57
2019-05-21T04:42:14.313Z,5.30
2019-05-21T04:44:46.351Z,5.17
2019-05-21T04:47:18.334Z,4.63
2019-05-21T04:49:50.270Z,4.53
2019-05-21T04:52:22.258Z,4.80
2019-05-21T04:54:54.224Z,4.10
2019-05-21T04:57:26.168Z,3.87
2019-05-21T04:59:58.121Z,3.63
2019-05-21T05:02:30.357Z,3.40
2019-05-21T05:05:02.328Z,3.77
2019-05-21T05:07:34.266Z,3.37
2019-05-21T05:10:07.108Z,3.97
2019-05-21T05:12:39.074Z,3.50
2019-05-21T05:15:11.318Z,3.50
2019-05-21T05:17:43.314Z,3.30
2019-05-21T05:20:15.404Z,3.50
2019-05-21T05:22:47.463Z,3.90
2019-05-21T05:25:19.900Z,4.30
2019-05-21T05:27:51.964Z,5.00
2019-05-21T05:30:23.966Z,3.57
2019-05-21T05:32:55.951Z,2.57
2019-05-21T05:35:27.949Z,2.83
2019-05-21T05:37:58.783Z,2.80
2019-05-21T05:40:30.550Z,2.60
2019-05-21T05:43:02.507Z,2.80
2019-05-21T05:45:34.476Z,2.60
2019-05-21T05:48:06.549Z,2.90
2019-05-21T05:50:40.572Z,2.93
2019-05-21T05:53:13.483Z,3.00
2019-05-21T05:55:45.545Z,3.20
2019-05-21T05:58:17.550Z,2.80
2019-05-21T06:00:50.025Z,3.33
2019-05-21T06:03:22.127Z,3.23
2019-05-21T06:05:54.316Z,3.33
2019-05-21T06:08:26.320Z,3.70
2019-05-21T06:10:58.329Z,4.00
2019-05-21T06:13:30.293Z,4.90
2019-05-21T06:16:02.304Z,4.80
2019-05-21T06:18:35.654Z,4.10
2019-05-21T06:21:07.967Z,4.07
2019-05-21T06:23:39.928Z,2.87
2019-05-21T06:26:11.893Z,3.13
2019-05-21T06:28:43.923Z,3.17
2019-05-21T06:31:15.917Z,2.90
2019-05-21T06:33:47.924Z,3.07
2019-05-21T06:36:20.245Z,3.33
2019-05-21T06:38:52.221Z,3.13
2019-05-21T06:41:24.254Z,3.80
2019-05-21T06:44:02.215Z,3.33
2019-05-21T06:46:34.203Z,3.17
2019-05-21T06:49:06.144Z,3.70
2019-05-21T06:51:38.160Z,5.37
2019-05-21T06:54:10.174Z,4.60
2019-05-21T06:56:42.218Z,5.07
2019-05-21T06:59:14.162Z,5.63
2019-05-21T07:01:46.149Z,4.80
2019-05-21T07:04:18.144Z,3.87
2019-05-21T07:06:50.425Z,3.70
2019-05-21T07:09:22.370Z,3.60
2019-05-21T07:11:54.348Z,3.20
2019-05-21T07:14:26.341Z,2.83
2019-05-21T07:16:58.311Z,2.70
2019-05-21T07:19:30.259Z,2.37
2019-05-21T07:22:11.996Z,2.07
2019-05-21T07:24:35.987Z,2.10
2019-05-21T07:27:07.986Z,1.97
2019-05-21T07:29:40.206Z,2.40
2019-05-21T07:32:12.182Z,2.20
2019-05-21T07:34:44.339Z,2.40
2019-05-21T07:37:16.580Z,3.60
2019-05-21T07:39:48.539Z,2.40
2019-05-21T07:42:20.526Z,2.30
2019-05-21T07:44:52.622Z,2.57
2019-05-21T07:47:24.659Z,2.40
2019-05-21T07:49:56.595Z,2.53
2019-05-21T07:52:28.627Z,2.30
2019-05-21T07:55:00.849Z,2.40
2019-05-21T07:57:32.827Z,2.00
2019-05-21T08:00:05.453Z,2.30
2019-05-21T08:02:37.489Z,2.63
2019-05-21T08:05:09.555Z,2.67
2019-05-21T08:07:41.510Z,2.87
2019-05-21T08:10:13.594Z,2.50
2019-05-21T08:12:45.590Z,2.80
2019-05-21T08:15:17.527Z,2.90
2019-05-21T08:17:49.566Z,2.60
2019-05-21T08:20:23.544Z,3.30
2019-05-21T08:22:55.544Z,2.27
2019-05-21T08:25:27.511Z,2.50
2019-05-21T08:27:59.501Z,2.58
2019-05-21T08:30:31.473Z,2.60
2019-05-21T08:33:03.520Z,2.22
2019-05-21T08:35:38.324Z,1.70
2019-05-21T08:38:10.317Z,1.90
2019-05-21T08:40:42.233Z,2.67
2019-05-21T08:43:14.252Z,1.70
2019-05-21T08:45:46.339Z,2.00
2019-05-21T08:48:18.316Z,1.70
2019-05-21T08:50:50.698Z,1.70
2019-05-21T08:53:22.751Z,1.70
2019-05-21T08:55:54.732Z,1.57
2019-05-21T08:58:26.717Z,1.47
2019-05-21T09:00:58.686Z,2.77
2019-05-21T09:03:30.623Z,2.20
2019-05-21T09:06:02.613Z,1.77
2019-05-21T09:08:34.609Z,1.50
2019-05-21T09:11:06.578Z,1.50
2019-05-21T09:13:38.576Z,1.40
2019-05-21T09:16:10.951Z,1.60
2019-05-21T09:18:42.932Z,1.40
2019-05-21T09:21:14.976Z,1.40
2019-05-21T09:23:46.910Z,2.30
2019-05-21T09:26:18.954Z,2.45
2019-05-21T09:28:51.546Z,1.60
2019-05-21T09:31:23.527Z,2.50
2019-05-21T09:33:55.510Z,2.05
2019-05-21T09:36:28.161Z,2.20
2019-05-21T09:39:00.492Z,1.98
2019-05-21T09:41:32.494Z,1.95
2019-05-21T09:44:04.592Z,2.25
2019-05-21T09:46:36.707Z,2.12
2019-05-21T09:49:08.740Z,1.92
2019-05-21T09:51:40.697Z,2.12
2019-05-21T09:54:12.701Z,2.60
2019-05-21T09:56:44.678Z,2.42
2019-05-21T09:59:35.530Z,2.15
2019-05-21T10:02:17.103Z,2.20
2019-05-21T10:04:49.160Z,2.20
2019-05-21T10:07:38.221Z,2.02
2019-05-21T10:09:54.982Z,2.65
2019-05-21T10:12:26.932Z,2.12
2019-05-21T10:14:58.973Z,1.87
2019-05-21T10:17:30.991Z,3.00
2019-05-21T10:20:03.045Z,2.15
2019-05-21T10:22:35.050Z,3.12
2019-05-21T10:25:07.711Z,2.75
2019-05-21T10:27:39.749Z,2.60
2019-05-21T10:30:13.295Z,1.80
2019-05-21T10:32:45.280Z,1.85
2019-05-21T10:35:17.398Z,1.82
2019-05-21T10:37:54.862Z,1.65
2019-05-21T10:40:23.368Z,1.70
2019-05-21T10:42:55.350Z,1.75
2019-05-21T10:49:27.464Z,3.20
2019-05-21T10:51:59.434Z,2.90
2019-05-21T10:54:31.441Z,2.85
2019-05-21T10:57:03.414Z,2.50
2019-05-21T10:59:35.402Z,2.17
2019-05-21T11:02:23.443Z,2.02
2019-05-21T11:05:05.598Z,2.20
2019-05-21T11:07:37.586Z,2.20
2019-05-21T11:10:10.335Z,2.00
2019-05-21T11:12:42.390Z,1.80
2019-05-21T11:15:14.907Z,1.70
2019-05-21T11:17:59.145Z,1.65
2019-05-21T11:20:21.499Z,2.15
2019-05-21T11:22:53.539Z,2.30
2019-05-21T11:25:25.506Z,2.70
2019-05-21T11:27:57.501Z,2.30
2019-05-21T11:30:29.536Z,2.08
2019-05-21T11:33:01.497Z,2.00
2019-05-21T11:35:35.968Z,2.00
2019-05-21T11:38:07.129Z,2.25
2019-05-21T11:40:39.069Z,2.02
2019-05-21T11:43:11.184Z,2.05
2019-05-21T11:45:43.676Z,2.35
2019-05-21T11:48:15.748Z,2.62
2019-05-21T11:50:47.708Z,3.00
2019-05-21T11:53:19.654Z,3.02
2019-05-21T11:55:51.610Z,2.92
2019-05-21T11:58:23.652Z,3.80
2019-05-21T12:00:55.700Z,3.15
2019-05-21T12:03:27.679Z,3.72
2019-05-21T12:05:59.711Z,4.10
2019-05-21T12:08:31.670Z,3.20
2019-05-21T12:11:03.630Z,3.05
2019-05-21T12:13:35.647Z,2.80
2019-05-21T12:16:07.626Z,2.90
2019-05-21T12:18:40.275Z,2.52
2019-05-21T12:21:12.330Z,2.90
2019-05-21T12:23:44.365Z,2.50
2019-05-21T12:26:16.356Z,2.17
2019-05-21T12:28:48.374Z,2.10
2019-05-21T12:31:20.631Z,1.90
2019-05-21T12:33:52.694Z,2.20
2019-05-21T12:36:24.806Z,1.80
2019-05-21T12:39:11.638Z,1.75
2019-05-21T12:41:30.855Z,1.80
2019-05-21T12:44:02.855Z,2.20
2019-05-21T12:46:34.858Z,2.90
2019-05-21T12:49:06.836Z,2.73
2019-05-21T12:51:38.914Z,2.70
2019-05-21T12:54:10.896Z,2.50
2019-05-21T12:56:42.876Z,2.90
2019-05-21T12:59:14.893Z,2.70
2019-05-21T13:01:46.846Z,2.80
2019-05-21T13:04:18.864Z,2.90
2019-05-21T13:06:51.264Z,2.57
2019-05-21T13:09:32.167Z,2.93
2019-05-21T13:11:57.043Z,2.70
2019-05-21T13:14:29.011Z,3.27
2019-05-21T13:17:01.256Z,2.80
2019-05-21T13:19:33.230Z,2.70
2019-05-21T13:22:05.393Z,3.13
2019-05-21T13:24:37.393Z,3.00
2019-05-21T13:27:09.444Z,3.10
2019-05-21T13:29:41.398Z,3.10
2019-05-21T13:32:13.448Z,3.17
2019-05-21T13:34:45.763Z,3.23
2019-05-21T13:37:17.752Z,3.23
2019-05-21T13:39:50.684Z,3.57
2019-05-21T13:42:23.025Z,3.50
2019-05-21T13:44:55.170Z,3.23
2019-05-21T13:47:27.175Z,3.50
2019-05-21T13:49:59.366Z,3.47
2019-05-21T13:52:31.478Z,3.20
2019-05-21T13:55:03.525Z,3.77
2019-05-21T13:57:35.582Z,3.07
2019-05-21T14:00:13.702Z,3.20
2019-05-21T14:02:46.044Z,3.23
2019-05-21T14:05:18.172Z,3.00
2019-05-21T14:07:50.156Z,3.47
2019-05-21T14:10:22.184Z,3.07
2019-05-21T14:12:54.206Z,3.97
2019-05-21T14:15:26.182Z,3.17
2019-05-21T14:17:58.125Z,3.43
2019-05-21T14:20:30.371Z,3.00
2019-05-21T14:23:02.396Z,3.03
2019-05-21T14:25:34.603Z,3.60
2019-05-21T14:28:06.774Z,3.70
2019-05-21T14:30:38.830Z,3.30
2019-05-21T14:33:11.091Z,3.40
2019-05-21T14:35:43.094Z,3.60
2019-05-21T14:38:15.061Z,3.85
2019-05-21T14:40:47.060Z,5.30
2019-05-21T14:43:19.105Z,4.70
2019-05-21T14:45:51.282Z,4.50
2019-05-21T14:48:23.242Z,3.90
2019-05-21T14:50:55.293Z,3.80
2019-05-21T14:53:27.352Z,3.90
2019-05-21T14:55:59.293Z,3.33
2019-05-21T14:58:31.427Z,3.58
2019-05-21T15:01:03.554Z,3.20
2019-05-21T15:03:35.626Z,3.13
2019-05-21T15:06:07.584Z,4.13
2019-05-21T15:08:40.191Z,3.30
2019-05-21T15:11:12.216Z,4.17
2019-05-21T15:13:44.183Z,4.00
2019-05-21T15:16:16.148Z,3.70
2019-05-21T15:18:48.338Z,4.53
2019-05-21T15:21:26.052Z,4.43
2019-05-21T15:23:58.128Z,4.60
2019-05-21T15:26:30.338Z,4.90
2019-05-21T15:29:02.441Z,5.20
2019-05-21T15:31:34.402Z,7.13
2019-05-21T15:34:06.464Z,6.50
2019-05-21T15:36:38.425Z,6.83
2019-05-21T15:39:10.755Z,9.40
2019-05-21T15:41:42.678Z,9.83
2019-05-21T15:44:14.854Z,10.23
2019-05-21T15:46:50.138Z,7.73
2019-05-21T15:49:34.963Z,8.93
2019-05-21T15:51:54.667Z,13.03
2019-05-21T15:54:26.931Z,5.03
2019-05-21T15:56:58.868Z,4.00
2019-05-21T15:59:31.282Z,6.90
2019-05-21T16:02:03.546Z,4.90
2019-05-21T16:04:35.613Z,6.30
2019-05-21T16:07:07.548Z,8.07
2019-05-21T16:09:39.872Z,5.00
2019-05-21T16:12:11.998Z,6.50
2019-05-21T16:14:45.933Z,6.10
2019-05-21T16:17:18.485Z,4.87
2019-05-21T16:19:50.804Z,6.67
2019-05-21T16:22:24.651Z,7.17
2019-05-21T16:24:56.703Z,6.00
2019-05-21T16:27:28.705Z,5.30
2019-05-21T16:30:01.467Z,5.33
2019-05-21T16:32:33.625Z,4.50
2019-05-21T16:35:05.802Z,4.43
2019-05-21T16:37:37.965Z,5.07
2019-05-21T16:40:10.975Z,5.23
2019-05-21T16:42:44.930Z,5.37
2019-05-21T16:45:17.263Z,5.90
2019-05-21T16:47:49.488Z,6.03
2019-05-21T16:50:21.576Z,8.03
2019-05-21T16:52:53.641Z,10.63
2019-05-21T16:55:25.697Z,7.60
2019-05-21T16:57:57.665Z,7.30
2019-05-21T17:00:30.261Z,6.43
2019-05-21T17:03:03.394Z,5.80
2019-05-21T17:05:35.395Z,5.10
2019-05-21T17:08:07.440Z,5.10
2019-05-21T17:10:39.416Z,5.50
2019-05-21T17:13:11.379Z,5.87
2019-05-21T17:15:43.472Z,7.27
2019-05-21T17:18:15.487Z,7.87
2019-05-21T17:20:47.547Z,6.27
2019-05-21T17:23:20.018Z,6.47
2019-05-21T17:25:52.126Z,7.70
2019-05-21T17:28:24.121Z,7.97
2019-05-21T17:30:56.112Z,8.37
2019-05-21T17:33:28.091Z,8.63
2019-05-21T17:36:00.079Z,9.70
2019-05-21T17:38:32.066Z,8.83
2019-05-21T17:41:03.999Z,10.30
2019-05-21T17:43:36.054Z,9.40
2019-05-21T17:46:08.033Z,10.87
2019-05-21T17:48:40.618Z,12.43
2019-05-21T17:51:12.579Z,11.37
2019-05-21T17:53:44.586Z,10.80
2019-05-21T17:56:16.559Z,10.13
2019-05-21T17:58:48.649Z,9.90
2019-05-21T18:01:21.436Z,8.30
2019-05-21T18:03:54.119Z,7.60
2019-05-21T18:06:26.502Z,7.67
2019-05-21T18:08:58.670Z,7.33
2019-05-21T18:11:30.723Z,7.30
2019-05-21T18:14:02.991Z,8.07
2019-05-21T18:16:35.389Z,8.37
2019-05-21T18:19:08.646Z,8.37
2019-05-21T18:21:41.453Z,8.53
2019-05-21T18:24:13.484Z,9.17
2019-05-21T18:26:45.792Z,9.73
2019-05-21T18:29:17.779Z,10.67
2019-05-21T18:31:50.051Z,11.20
2019-05-21T18:34:22.167Z,11.23
2019-05-21T18:36:54.526Z,11.53
2019-05-21T18:39:26.558Z,12.67
2019-05-21T18:41:58.525Z,12.53
2019-05-21T18:44:31.004Z,12.40
2019-05-21T18:47:03.029Z,11.67
2019-05-21T18:49:35.081Z,11.80
2019-05-21T18:52:07.114Z,10.63
2019-05-21T18:54:39.096Z,11.00
2019-05-21T18:57:11.280Z,11.07
2019-05-21T18:59:43.739Z,10.93
2019-05-21T19:02:16.305Z,10.60
2019-05-21T19:04:48.376Z,11.53
2019-05-21T19:07:20.899Z,12.23
2019-05-21T19:09:52.871Z,12.10
2019-05-21T19:12:36.960Z,12.47
2019-05-21T19:14:58.709Z,13.23
2019-05-21T19:17:35.507Z,12.83
2019-05-21T19:20:06.780Z,13.03
2019-05-21T19:22:38.822Z,16.00
2019-05-21T19:25:10.909Z,11.37
2019-05-21T19:27:43.046Z,10.83
2019-05-21T19:30:15.508Z,16.90
2019-05-21T19:32:47.662Z,13.30
2019-05-21T19:35:20.141Z,12.87
2019-05-21T19:37:52.133Z,14.90
2019-05-21T19:40:24.086Z,13.57
2019-05-21T19:42:56.202Z,14.50
2019-05-21T19:45:31.311Z,14.70
2019-05-21T19:48:01.992Z,14.83
2019-05-21T19:50:34.331Z,15.23
2019-05-21T19:53:06.304Z,13.67
2019-05-21T19:55:38.993Z,14.43
2019-05-21T19:58:11.071Z,17.60
2019-05-21T20:00:49.694Z,15.73
2019-05-21T20:03:22.554Z,19.53
2019-05-21T20:05:55.419Z,18.23
2019-05-21T20:08:28.577Z,18.57
2019-05-21T20:11:01.054Z,17.47
2019-05-21T20:13:33.106Z,17.50
2019-05-21T20:16:06.191Z,17.13
2019-05-21T20:18:38.151Z,17.20
2019-05-21T20:21:11.133Z,16.97
2019-05-21T20:23:44.197Z,16.90
2019-05-21T20:26:19.655Z,17.30
2019-05-21T20:28:52.023Z,18.43
2019-05-21T20:31:25.248Z,17.03
2019-05-21T20:33:57.298Z,17.40
2019-05-21T20:36:29.974Z,18.47
2019-05-21T20:39:02.373Z,16.20
2019-05-21T20:41:34.378Z,15.73
2019-05-21T20:44:08.590Z,15.73
2019-05-21T20:46:41.552Z,15.57
2019-05-21T20:49:13.544Z,15.27
2019-05-21T20:51:45.978Z,14.20
2019-05-21T20:54:19.620Z,14.40
2019-05-21T20:56:52.016Z,14.93
2019-05-21T20:59:23.981Z,14.27
2019-05-21T21:01:57.305Z,14.30
2019-05-21T21:04:30.687Z,13.83
2019-05-21T21:07:03.389Z,13.33
2019-05-21T21:09:36.392Z,15.83
2019-05-21T21:12:09.762Z,14.77
2019-05-21T21:14:43.504Z,13.77
2019-05-21T21:17:17.191Z,14.30
2019-05-21T21:19:49.156Z,13.77
2019-05-21T21:22:21.270Z,14.17
2019-05-21T21:24:53.828Z,15.40
2019-05-21T21:27:26.278Z,15.90
2019-05-21T21:29:58.229Z,15.37
2019-05-21T21:32:30.903Z,16.97
2019-05-21T21:35:03.281Z,16.73
2019-05-21T21:37:35.408Z,19.23
2019-05-21T21:40:10.290Z,18.47
2019-05-21T21:42:42.794Z,22.43
2019-05-21T21:45:15.777Z,20.63
2019-05-21T21:47:47.718Z,20.77
2019-05-21T21:50:20.113Z,21.20
2019-05-21T21:52:52.065Z,21.93
2019-05-21T21:55:24.180Z,22.27
2019-05-21T21:57:56.157Z,22.33
2019-05-21T22:01:29.152Z,20.73
2019-05-21T22:04:04.688Z,23.17
2019-05-21T22:06:39.348Z,21.63
2019-05-21T22:09:24.610Z,24.20
2019-05-21T22:11:57.436Z,22.40
2019-05-21T22:14:30.099Z,21.77
2019-05-21T22:17:02.260Z,24.93
2019-05-21T22:19:34.880Z,23.63
2019-05-21T22:22:07.485Z,22.13
2019-05-21T22:24:39.744Z,21.77
2019-05-21T22:27:11.716Z,23.77
2019-05-21T22:29:43.867Z,24.37
2019-05-21T22:32:16.822Z,26.57
2019-05-21T22:34:48.877Z,24.50
2019-05-21T22:37:23.719Z,27.50
2019-05-21T22:39:55.758Z,27.20
2019-05-21T22:42:28.304Z,24.20
2019-05-21T22:45:08.068Z,23.57
2019-05-21T22:47:35.500Z,25.40
2019-05-21T22:50:09.274Z,24.80
2019-05-21T22:52:41.235Z,21.53
2019-05-21T22:55:13.412Z,19.63
2019-05-21T22:57:45.533Z,17.63
2019-05-21T23:00:17.900Z,18.77
2019-05-21T23:02:49.890Z,19.57
2019-05-21T23:05:23.117Z,22.17
2019-05-21T23:07:55.671Z,23.90
2019-05-21T23:10:28.061Z,25.93
2019-05-21T23:13:00.746Z,24.03
2019-05-21T23:15:32.710Z,26.87
2019-05-21T23:18:05.346Z,25.23
2019-05-21T23:20:38.221Z,25.57
2019-05-21T23:23:10.345Z,24.73
2019-05-21T23:25:43.662Z,24.87
2019-05-21T23:28:16.107Z,23.17
2019-05-21T23:30:48.862Z,25.50
2019-05-21T23:33:21.577Z,24.23
2019-05-21T23:35:53.837Z,24.40
2019-05-21T23:38:26.275Z,23.50
2019-05-21T23:40:58.285Z,24.33
2019-05-21T23:43:31.016Z,26.30
2019-05-21T23:46:03.090Z,26.07
2019-05-21T23:48:35.631Z,26.63
2019-05-21T23:51:07.608Z,24.50
2019-05-21T23:53:40.813Z,28.30
2019-05-21T23:56:13.163Z,26.23
2019-05-21T23:58:47.976Z,24.60
